• Join FlightAware (Why Join?)
  • Login
  • US Flag 
07:08AM EDT


 

Airport Tracker/Info


-or-


 

Live Flight TrackerFlight Track Log ✈ N199AN ✈ 04-May-2013 ✈ KJFK - EGCC / MAN

Flight Track Log - Related Links

Times and Time Zones

All times are in EDT time to prevent confusion due to time zone crossing. See the N199AN flight status page for this flight to view local times or setup timezone preferences in your user account.

Time Position Orientation Groundspeed Altitude Reporting Facility
EDT Latitude Longitude Course Direction KTS MPH feet Rate Location/Type
08:57PM 40.6260 -73.7840 121° Southeast 159 183 800  Level FlightAware
08:57PM 40.6090 -73.7680 144° Southeast 190 219 1,500 1,500 Climbing FlightAware
08:57PM 40.5990 -73.7590 146° Southeast 206 237 1,800 1,320 Climbing FlightAware
08:58PM 40.5730 -73.7360 146° Southeast 249 287 2,500 1,860 Climbing FlightAware
08:58PM 40.5620 -73.7200 132° Southeast 247 284 3,200 2,700 Climbing FlightAware
08:58PM 40.5460 -73.6870 123° Southeast 260 299 4,300 1,500 Climbing FlightAware
08:59PM 40.5260 -73.6470 123° Southeast 254 292 4,600 300 Climbing FlightAware
08:59PM 40.5100 -73.6130 122° Southeast 250 288 4,600 120 Level FlightAware
09:00PM 40.5006 -73.5935 122° Southeast 252 290 4,700 180 Climbing FlightAware ADS-B
09:00PM 40.4913 -73.5740 122° Southeast 252 290 4,700  Level FlightAware ADS-B
09:00PM 40.4783 -73.5401 117° Southeast 252 290 4,700  Level FlightAware ADS-B
09:01PM 40.4771 -73.4995 92° East 241 277 4,700  Level FlightAware ADS-B
09:01PM 40.4781 -73.4932 78° East 240 276 4,700  Level FlightAware ADS-B
09:01PM 40.4824 -73.4704 76° East 239 275 4,700  Level FlightAware ADS-B
09:01PM 40.4844 -73.4578 78° East 239 275 4,700  Level FlightAware ADS-B
09:02PM 40.4910 -73.4140 79° East 239 275 4,700 360 Level FlightAware
09:02PM 40.4980 -73.3760 76° East 244 281 5,100 1,920 Climbing FlightAware
09:02PM 40.5014 -73.3571 77° East 243 280 5,900 3,240 Climbing FlightAware ADS-B
09:03PM 40.5042 -73.3402 78° East 248 285 6,400 2,640 Climbing FlightAware ADS-B
09:03PM 40.5076 -73.3176 79° East 252 290 7,100 3,000 Climbing FlightAware ADS-B
09:03PM 40.5114 -73.2946 78° East 255 293 7,900 2,880 Climbing FlightAware ADS-B
09:03PM 40.5155 -73.2702 78° East 260 299 8,600 2,820 Climbing FlightAware ADS-B
09:04PM 40.5210 -73.2357 78° East 264 304 9,700 2,100 Climbing FlightAware ADS-B
09:04PM 40.5304 -73.1804 77° East 296 341 10,600 1,320 Climbing FlightAware ADS-B
09:05PM 40.5368 -73.1427 77° East 322 371 10,900 1,620 Climbing FlightAware ADS-B
09:05PM 40.5480 -73.0762 77° East 340 391 12,100 2,280 Climbing FlightAware ADS-B
09:05PM 40.5538 -73.0433 77° East 347 399 12,800 2,640 Climbing FlightAware ADS-B
09:06PM 40.5607 -73.0168 71° East 348 400 13,400 2,460 Climbing FlightAware ADS-B
09:06PM 40.5746 -72.9832 61° Northeast 352 405 14,100 2,400 Climbing FlightAware ADS-B
09:06PM 40.5947 -72.9508 51° Northeast 359 413 14,900 2,400 Climbing FlightAware ADS-B
09:07PM 40.6293 -72.9023 47° Northeast 365 420 16,100 2,340 Climbing FlightAware ADS-B
09:07PM 40.6670 -72.8480 48° Northeast 372 428 17,400 2,460 Climbing FlightAware
09:07PM 40.6714 -72.8414 49° Northeast 373 429 17,600 2,160 Climbing FlightAware ADS-B
09:08PM 40.7100 -72.7868 47° Northeast 383 441 18,700 2,040 Climbing FlightAware ADS-B
09:08PM 40.7480 -72.7327 47° Northeast 389 448 19,800 2,160 Climbing FlightAware ADS-B
09:09PM 40.7847 -72.6788 48° Northeast 394 453 20,900 2,100 Climbing FlightAware ADS-B
09:09PM 40.8219 -72.6251 48° Northeast 397 457 21,900 1,980 Climbing FlightAware ADS-B
09:10PM 40.8621 -72.5676 47° Northeast 401 461 23,000 1,920 Climbing FlightAware ADS-B
09:10PM 40.9002 -72.5134 47° Northeast 407 468 23,900 1,860 Climbing FlightAware ADS-B
09:11PM 40.9399 -72.4565 47° Northeast 409 471 24,900 1,740 Climbing FlightAware ADS-B
09:11PM 40.9750 -72.4060 47° Northeast 411 473 25,700 1,680 Climbing FlightAware
09:12PM 40.9842 -72.3930 47° Northeast 413 475 25,900 2,100 Climbing FlightAware ADS-B
09:12PM 41.0277 -72.3306 47° Northeast 408 470 27,100 1,860 Climbing FlightAware ADS-B
09:13PM 41.0667 -72.2742 47° Northeast 412 474 27,900 1,380 Climbing FlightAware ADS-B
09:13PM 41.1153 -72.2039 47° Northeast 420 483 28,700 1,140 Climbing FlightAware ADS-B
09:14PM 41.1780 -72.1130 47° Northeast 426 490 29,700 1,140 Climbing FlightAware
09:15PM 41.2360 -72.0280 48° Northeast 433 498 30,500 1,320 Climbing FlightAware
09:16PM 41.3040 -71.9300 47° Northeast 434 499 31,700 1,440 Climbing FlightAware
09:16PM 41.3650 -71.8400 48° Northeast 434 499 32,800 1,260 Climbing FlightAware
09:18PM 41.5290 -71.5980 48° Northeast 433 498 35,300 1,200 Climbing FlightAware
09:19PM 41.5820 -71.5190 48° Northeast 427 491 36,200 1,200 Climbing FlightAware
09:20PM 41.6420 -71.4310 48° Northeast 419 482 37,000 480 Climbing FlightAware
09:21PM 41.6990 -71.3450 48° Northeast 415 478 37,000  Level FlightAware
09:21PM 41.7480 -71.2720 48° Northeast 415 478 37,000  Level FlightAware
09:22PM 41.8010 -71.1930 48° Northeast 415 478 37,000  Level FlightAware
09:23PM 41.8580 -71.1070 48° Northeast 415 478 37,000  Level FlightAware
09:23PM 41.9100 -71.0290 48° Northeast 415 478 37,000  Level FlightAware
09:24PM 41.9610 -70.9510 49° Northeast 415 478 37,000  Level FlightAware
09:25PM 42.0150 -70.8690 48° Northeast 415 478 37,000  Level FlightAware
09:25PM 42.0660 -70.7920 48° Northeast 415 478 37,000  Level FlightAware
09:26PM 42.1270 -70.7000 48° Northeast 416 479 37,000  Level FlightAware
09:27PM 42.1780 -70.6210 49° Northeast 418 481 37,000  Level FlightAware
09:28PM 42.2320 -70.5390 48° Northeast 418 481 37,000  Level FlightAware
09:28PM 42.2880 -70.4520 49° Northeast 419 482 37,000  Level FlightAware
09:29PM 42.3178 -70.4128 49° Northeast 413 475 37,000  Level Boston Center
09:30PM 42.3967 -70.2950 48° Northeast 413 475 37,000  Level Boston Center
09:31PM 42.4736 -70.1742 49° Northeast 413 475 37,000 -180 Level Boston Center
09:36PM 42.8930 -69.5050 49° Northeast 428 493 36,000 -180 Descending FlightAware
09:38PM 42.9910 -69.3480 49° Northeast 429 494 36,000  Level FlightAware
09:38PM 43.0540 -69.2470 49° Northeast 437 503 36,000  Level FlightAware
09:39PM 43.1180 -69.1450 49° Northeast 437 503 36,000  Level FlightAware
09:40PM 43.2100 -68.9940 50° Northeast 432 497 36,000  Level FlightAware
09:41PM 43.2540 -68.9230 50° Northeast 432 497 36,000  Level FlightAware
09:42PM 43.3140 -68.8270 49° Northeast 429 494 36,000  Level FlightAware
09:43PM 43.4060 -68.6760 50° Northeast 432 497 36,000  Level FlightAware
09:44PM 43.4500 -68.6040 50° Northeast 432 497 36,000  Level FlightAware
09:44PM 43.5040 -68.5150 50° Northeast 432 497 36,000  Level FlightAware
09:45PM 43.5480 -68.4430 50° Northeast 432 497 36,000  Level FlightAware
09:46PM 43.6580 -68.2610 50° Northeast 427 491 36,000  Level FlightAware
09:47PM 43.7010 -68.1900 50° Northeast 427 491 36,000  Level FlightAware
09:48PM 43.7860 -68.0480 50° Northeast 426 490 36,000  Level FlightAware
09:49PM 43.8380 -67.9610 50° Northeast 426 490 36,000  Level FlightAware
09:49PM 43.8940 -67.8680 50° Northeast 426 490 36,000  Level FlightAware
09:50PM 43.9620 -67.7520 51° Northeast 420 483 36,000  Level FlightAware
09:51PM 44.0130 -67.6670 50° Northeast 421 484 36,000  Level FlightAware
09:52PM 44.0690 -67.5720 51° Northeast 421 484 36,000  Level FlightAware
09:52PM 44.1070 -67.5070 51° Northeast 422 486 36,000  Level FlightAware
09:53PM 44.1680 -67.4020 51° Northeast 421 484 36,000  Level FlightAware
09:54PM 44.2430 -67.2750 50° Northeast 421 484 36,000  Level FlightAware
09:55PM 44.2870 -67.1990 51° Northeast 421 484 36,000  Level FlightAware
09:55PM 44.3490 -67.0940 50° Northeast 422 486 36,000  Level FlightAware
09:56PM 44.4160 -66.9770 51° Northeast 422 486 36,000  Level FlightAware
09:57PM 44.4650 -66.8870 53° Northeast 428 493 36,000  Level FlightAware
09:58PM 44.5180 -66.7880 53° Northeast 428 493 36,000  Level FlightAware
09:58PM 44.5540 -66.7210 53° Northeast 429 494 36,000  Level FlightAware
09:59PM 44.6070 -66.6220 53° Northeast 429 494 36,000  Level FlightAware
10:00PM 44.6850 -66.4770 53° Northeast 432 497 36,000  Level FlightAware
10:01PM 44.7270 -66.3980 53° Northeast 433 498 36,000  Level FlightAware
10:01PM 44.7810 -66.2970 53° Northeast 433 498 36,000  Level FlightAware
10:02PM 44.8520 -66.1620 53° Northeast 433 498 36,000  Level FlightAware
10:03PM 44.9010 -66.0690 53° Northeast 433 498 36,000  Level FlightAware
10:04PM 44.9480 -65.9800 53° Northeast 433 498 36,000  Level FlightAware
10:05PM 45.0190 -65.8440 54° Northeast 434 499 36,000  Level FlightAware
10:05PM 45.0670 -65.7520 54° Northeast 434 499 36,000  Level FlightAware
10:06PM 45.1160 -65.6590 53° Northeast 434 499 36,000  Level FlightAware
10:07PM 45.1680 -65.5590 54° Northeast 434 499 36,000  Level FlightAware
10:07PM 45.2160 -65.4650 54° Northeast 433 498 36,000  Level FlightAware
10:08PM 45.2690 -65.3620 54° Northeast 433 498 36,000  Level FlightAware
10:09PM 45.3170 -65.2700 53° Northeast 426 490 36,000  Level FlightAware
10:10PM 45.3650 -65.1750 54° Northeast 428 493 36,000  Level FlightAware
10:10PM 45.4190 -65.0690 54° Northeast 428 493 36,000  Level FlightAware
10:11PM 45.4660 -64.9770 54° Northeast 426 490 36,000  Level FlightAware
10:12PM 45.5170 -64.8770 54° Northeast 427 491 36,000  Level FlightAware
10:12PM 45.5630 -64.7860 54° Northeast 427 491 36,000  Level FlightAware
10:13PM 45.6140 -64.6850 54° Northeast 427 491 36,000  Level FlightAware
10:14PM 45.6620 -64.5890 54° Northeast 427 491 36,000  Level FlightAware
10:14PM 45.6990 -64.5140 55° Northeast 428 493 36,000  Level FlightAware
10:15PM 45.7670 -64.3790 54° Northeast 428 493 36,000  Level FlightAware
10:16PM 45.8230 -64.2650 55° Northeast 432 497 36,000  Level FlightAware
10:17PM 45.8650 -64.1790 55° Northeast 433 498 36,000  Level FlightAware
10:17PM 45.9040 -64.1020 54° Northeast 433 498 36,000  Level FlightAware
10:18PM 45.9680 -63.9710 55° Northeast 437 503 36,000  Level FlightAware
10:19PM 46.0040 -63.8960 55° Northeast 438 504 36,000  Level FlightAware
10:20PM 46.0620 -63.7780 55° Northeast 438 504 36,000  Level FlightAware
10:20PM 45.9310 -64.0470 235° Southwest 36,000  Level FlightAware
10:21PM 45.9700 -63.9660 55° Northeast 436 502 36,000  Level FlightAware
10:22PM 46.0190 -63.8650 55° Northeast 436 502 36,000  Level FlightAware
10:23PM 46.0580 -63.7840 55° Northeast 436 502 36,000  Level FlightAware
10:23PM 46.0980 -63.7030 55° Northeast 436 502 36,000  Level FlightAware
10:24PM 46.1370 -63.6220 55° Northeast 436 502 36,000  Level FlightAware
10:25PM 46.1760 -63.5410 55° Northeast 436 502 36,000  Level FlightAware
10:25PM 46.2260 -63.4390 55° Northeast 436 502 36,000  Level FlightAware
10:26PM 46.2650 -63.3580 55° Northeast 436 502 36,000  Level FlightAware
10:27PM 46.3040 -63.2770 55° Northeast 436 502 36,000  Level FlightAware
10:27PM 46.3440 -63.1950 55° Northeast 436 502 36,000  Level FlightAware
10:28PM 46.6580 -62.5240 56° Northeast 450 518 36,000  Level FlightAware
10:29PM 46.7110 -62.4080 56° Northeast 450 518 36,000  Level FlightAware
10:30PM 46.7760 -62.2680 56° Northeast 451 519 36,000  Level FlightAware
10:30PM 46.8180 -62.1770 56° Northeast 452 520 36,000  Level FlightAware
10:31PM 46.8680 -62.0690 56° Northeast 452 520 36,000  Level FlightAware
10:32PM 46.9070 -61.9830 56° Northeast 452 520 36,000  Level FlightAware
10:33PM 46.9470 -61.8960 56° Northeast 452 520 36,000  Level FlightAware
10:33PM 46.9870 -61.8100 56° Northeast 452 520 36,000  Level FlightAware
10:34PM 47.0270 -61.7240 56° Northeast 452 520 36,000  Level FlightAware
10:35PM 47.0760 -61.6150 57° Northeast 452 520 36,000  Level FlightAware
10:35PM 47.1670 -61.4020 58° Northeast 455 524 36,000  Level FlightAware
10:36PM 47.2100 -61.3070 56° Northeast 455 524 36,000  Level FlightAware
10:37PM 47.2640 -61.1840 57° Northeast 454 522 36,000  Level FlightAware
10:38PM 47.3050 -61.0910 57° Northeast 454 522 36,000  Level FlightAware
10:38PM 47.3610 -60.9620 57° Northeast 454 522 36,000  Level FlightAware
10:39PM 47.3960 -60.8820 57° Northeast 454 522 36,000  Level FlightAware
10:40PM 47.4350 -60.7930 57° Northeast 454 522 36,000  Level FlightAware
10:40PM 47.4840 -60.6830 57° Northeast 454 522 36,000  Level FlightAware
10:41PM 47.5230 -60.5940 57° Northeast 454 522 36,000  Level FlightAware
10:42PM 47.5620 -60.5050 57° Northeast 454 522 36,000  Level FlightAware
10:42PM 47.6010 -60.4160 57° Northeast 454 522 36,000  Level FlightAware
10:43PM 47.6390 -60.3280 57° Northeast 454 522 36,000  Level FlightAware
10:44PM 47.6880 -60.2160 57° Northeast 454 522 36,000  Level FlightAware
10:45PM 47.7830 -59.9780 59° Northeast 458 527 36,000  Level FlightAware
10:45PM 47.8300 -59.8670 58° Northeast 459 528 36,000  Level FlightAware
10:46PM 47.8710 -59.7690 58° Northeast 459 528 36,000  Level FlightAware
10:47PM 47.9210 -59.6490 58° Northeast 461 531 36,000  Level FlightAware
10:47PM 47.9680 -59.5370 58° Northeast 462 532 36,000  Level FlightAware
10:48PM 48.0120 -59.4300 58° Northeast 462 532 36,000  Level FlightAware
10:49PM 48.0660 -59.2980 58° Northeast 463 533 36,000  Level FlightAware
10:49PM 48.1140 -59.1800 59° Northeast 462 532 36,000  Level FlightAware
10:50PM 48.1650 -59.0570 58° Northeast 463 533 36,000  Level FlightAware
10:51PM 48.2080 -58.9500 59° Northeast 463 533 36,000  Level FlightAware
10:52PM 48.2480 -58.8500 59° Northeast 462 532 36,000  Level FlightAware
10:52PM 48.3030 -58.7150 58° Northeast 462 532 36,000  Level FlightAware
10:53PM 48.3430 -58.6150 59° Northeast 462 532 36,000  Level FlightAware
10:54PM 48.3950 -58.4850 59° Northeast 461 531 36,000  Level FlightAware
10:54PM 48.4380 -58.3770 59° Northeast 461 531 36,000  Level FlightAware
10:55PM 48.4840 -58.2610 59° Northeast 461 531 36,000  Level FlightAware
10:56PM 48.5320 -58.1390 59° Northeast 460 529 36,000 60 Level FlightAware
10:56PM 48.5740 -58.0280 60° Northeast 461 531 36,100 600 Climbing FlightAware
10:57PM 48.6120 -57.9170 63° Northeast 460 529 36,800 960 Climbing FlightAware
10:58PM 48.6550 -57.7920 62° Northeast 461 531 37,500 840 Climbing FlightAware
10:59PM 48.6970 -57.6700 62° Northeast 463 533 38,000 300 Climbing FlightAware
10:59PM 48.7410 -57.5410 63° Northeast 467 537 38,000  Level FlightAware
11:00PM 48.7820 -57.4240 62° Northeast 466 536 38,000  Level FlightAware
11:01PM 48.8140 -57.3280 63° Northeast 465 535 38,000  Level FlightAware
11:01PM 48.8560 -57.2070 62° Northeast 463 533 38,000  Level FlightAware
11:02PM 48.9000 -57.0770 63° Northeast 462 532 38,000  Level FlightAware
11:03PM 48.9390 -56.9610 63° Northeast 461 531 38,000  Level FlightAware
11:03PM 48.9820 -56.8320 63° Northeast 461 531 38,000  Level FlightAware
11:04PM 49.0210 -56.7160 63° Northeast 460 529 38,000  Level FlightAware
11:05PM 49.0590 -56.6020 63° Northeast 460 529 38,000  Level FlightAware
11:05PM 49.1020 -56.4730 63° Northeast 460 529 38,000  Level FlightAware
11:06PM 49.1400 -56.3560 64° Northeast 459 528 38,000  Level FlightAware
11:07PM 49.1780 -56.2410 63° Northeast 459 528 38,000  Level FlightAware
11:08PM 49.2210 -56.1090 63° Northeast 460 529 38,000  Level FlightAware
11:08PM 49.2590 -55.9920 64° Northeast 459 528 38,000  Level FlightAware
11:09PM 49.3010 -55.8630 63° Northeast 459 528 38,000  Level FlightAware
11:10PM 49.3380 -55.7460 64° Northeast 459 528 38,000  Level FlightAware
11:10PM 49.3810 -55.6140 63° Northeast 459 528 38,000  Level FlightAware
11:11PM 49.4180 -55.4970 64° Northeast 460 529 38,000  Level FlightAware
11:12PM 49.4550 -55.3800 64° Northeast 460 529 38,000  Level FlightAware
11:12PM 49.4970 -55.2480 64° Northeast 461 531 38,000  Level FlightAware
11:13PM 49.5340 -55.1300 64° Northeast 462 532 38,000  Level FlightAware
11:14PM 49.5700 -55.0140 64° Northeast 462 532 38,000  Level FlightAware
11:15PM 49.6130 -54.8780 64° Northeast 463 533 38,000  Level FlightAware
11:15PM 49.6480 -54.7630 65° Northeast 463 533 38,000  Level FlightAware
11:16PM 49.6900 -54.6270 64° Northeast 463 533 38,000  Level FlightAware
11:17PM 49.7280 -54.5050 64° Northeast 463 533 38,000  Level FlightAware
11:17PM 49.7640 -54.3870 65° Northeast 463 533 38,000  Level FlightAware
11:18PM 49.8050 -54.2530 65° Northeast 463 533 38,000  Level FlightAware
11:19PM 49.8410 -54.1340 65° Northeast 463 533 38,000  Level FlightAware
11:19PM 49.8810 -54.0000 65° Northeast 463 533 38,000  Level FlightAware
11:20PM 49.9220 -53.8630 65° Northeast 462 532 38,000  Level FlightAware
11:21PM 49.9580 -53.7440 65° Northeast 462 532 38,000  Level FlightAware
11:22PM 49.9980 -53.6070 66° East 463 533 38,000  Level FlightAware
11:22PM 50.0330 -53.4880 65° Northeast 461 531 38,000  Level FlightAware
11:23PM 50.0690 -53.3660 65° Northeast 460 529 38,000  Level FlightAware
11:24PM 50.1080 -53.2310 66° East 458 527 38,000  Level FlightAware
11:24PM 50.1430 -53.1110 65° Northeast 456 525 38,000  Level FlightAware
11:25PM 50.1770 -52.9920 66° East 454 522 38,000  Level FlightAware
11:26PM 50.2150 -52.8610 66° East 456 525 38,000  Level FlightAware
11:26PM 50.2500 -52.7380 66° East 465 535 38,000  Level FlightAware
11:27PM 50.2890 -52.5990 66° East 469 540 38,000  Level FlightAware
11:28PM 50.3250 -52.4740 66° East 468 539 38,000  Level FlightAware
11:29PM 50.3590 -52.3530 66° East 463 533 38,000  Level FlightAware
11:29PM 50.3940 -52.2270 66° East 456 525 38,000  Level FlightAware
11:30PM 50.4220 -52.1260 66° East 455 524 38,000  Level FlightAware
11:31PM 50.4760 -51.9310 66° East 457 526 38,000  Level FlightAware
11:32PM 50.5210 -51.7700 66° East 457 526 38,000  Level FlightAware
11:33PM 50.5680 -51.5980 67° East 457 526 38,000  Level FlightAware
11:33PM 50.5970 -51.4950 66° East 457 526 38,000  Level FlightAware
11:34PM 50.6260 -51.3910 66° East 457 526 38,000  Level FlightAware
11:35PM 50.6560 -51.2880 65° Northeast 457 526 38,000  Level FlightAware
11:35PM 50.6850 -51.1840 66° East 457 526 38,000  Level FlightAware
11:36PM 50.7210 -51.0550 66° East 457 526 38,000  Level FlightAware
11:37PM 50.7510 -50.9510 65° Northeast 457 526 38,000  Level FlightAware
11:38PM 50.7800 -50.8470 66° East 457 526 38,000  Level FlightAware
11:38PM 50.8090 -50.7430 66° East 457 526 38,000  Level FlightAware
11:39PM 50.8380 -50.6390 66° East 457 526 38,000  Level FlightAware
11:40PM 50.8750 -50.5090 66° East 457 526 38,000  Level FlightAware
11:40PM 50.9040 -50.4050 66° East 457 526 38,000  Level FlightAware
11:41PM 50.9330 -50.3010 66° East 457 526 38,000  Level FlightAware
11:42PM 50.9630 -50.1960 66° East 457 526 38,000  Level FlightAware
11:42PM 51.0167 -49.7833 66° East 460 529 38,000  Level Moncton Center
11:43PM 51.0667 -49.6167 64° Northeast 460 529 38,000  Level Gander Center
11:44PM 51.0000 -50.0000 68° East 465 535 38,000  Level ETMS Enhanced Traffic Management System
11:44PM 51.1167 -49.4500 68° East 460 529 38,000  Level Gander Center
11:45PM 51.1500 -49.2500 75° East 450 518 38,000  Level Gander Center
11:46PM 51.2000 -49.0667 66° East 460 529 38,000  Level Gander Center
11:48PM 51.2725 -48.7726 68° East  Level FlightAware Approximate
11:55PM 51.5808 -47.4751 69° East  Level FlightAware Approximate
11:56PM 51.6236 -47.2883 70° East  Level FlightAware Approximate
11:57PM 51.6662 -47.1012 70° East  Level FlightAware Approximate
11:58PM 51.7085 -46.9137 70° East  Level FlightAware Approximate
11:59PM 51.7505 -46.7259 70° East  Level FlightAware Approximate
12:00AM 51.7921 -46.5377 70° East  Level FlightAware Approximate
12:01AM 51.8335 -46.3493 71° East  Level FlightAware Approximate
12:02AM 51.8736 -46.1599 71° East  Level FlightAware Approximate
12:03AM 51.9135 -45.9702 71° East  Level FlightAware Approximate
12:04AM 51.9530 -45.7801 71° East  Level FlightAware Approximate
12:05AM 51.9922 -45.5897 71° East  Level FlightAware Approximate
12:06AM 52.0311 -45.3990 72° East  Level FlightAware Approximate
12:07AM 52.0697 -45.2079 72° East  Level FlightAware Approximate
12:08AM 52.1080 -45.0165 72° East  Level FlightAware Approximate
12:09AM 52.1460 -44.8248 72° East  Level FlightAware Approximate
12:10AM 52.1837 -44.6327 72° East  Level FlightAware Approximate
12:11AM 52.2210 -44.4404 72° East  Level FlightAware Approximate
12:12AM 52.2581 -44.2477 72° East  Level FlightAware Approximate
12:13AM 52.2948 -44.0547 73° East  Level FlightAware Approximate
12:14AM 52.3312 -43.8613 73° East  Level FlightAware Approximate
12:15AM 52.3681 -43.6681 73° East  Level FlightAware Approximate
12:16AM 52.4048 -43.4745 73° East  Level FlightAware Approximate
12:17AM 52.4411 -43.2807 73° East  Level FlightAware Approximate
12:18AM 52.4771 -43.0865 73° East  Level FlightAware Approximate
12:19AM 52.5129 -42.8920 73° East  Level FlightAware Approximate
12:20AM 52.5482 -42.6972 73° East  Level FlightAware Approximate
12:21AM 52.5833 -42.5021 73° East  Level FlightAware Approximate
12:22AM 52.6180 -42.3067 74° East  Level FlightAware Approximate
12:23AM 52.6525 -42.1109 74° East  Level FlightAware Approximate
12:24AM 52.6866 -41.9149 74° East  Level FlightAware Approximate
12:25AM 52.7203 -41.7185 74° East  Level FlightAware Approximate
12:26AM 52.7538 -41.5219 74° East  Level FlightAware Approximate
12:27AM 52.7869 -41.3249 74° East  Level FlightAware Approximate
12:28AM 52.8197 -41.1277 75° East  Level FlightAware Approximate
12:29AM 52.8522 -40.9301 75° East  Level FlightAware Approximate
12:30AM 52.8843 -40.7323 75° East  Level FlightAware Approximate
12:31AM 52.9161 -40.5341 75° East  Level FlightAware Approximate
12:32AM 52.9476 -40.3357 75° East  Level FlightAware Approximate
12:32AM 53.0000 -40.0000 86° East 491 565 38,000  Level ETMS Enhanced Traffic Management System
12:33AM 52.9787 -40.1370 75° East  Level FlightAware Approximate
12:34AM 53.0027 -39.9362 86° East  Level FlightAware Approximate
12:35AM 53.0110 -39.7311 86° East  Level FlightAware Approximate
12:36AM 53.0190 -39.5259 86° East  Level FlightAware Approximate
12:37AM 53.0266 -39.3207 86° East  Level FlightAware Approximate
12:38AM 53.0339 -39.1154 87° East  Level FlightAware Approximate
12:39AM 53.0683 -37.9577 88° East 491 565 38,000  Level FlightAware Transoceanic
12:40AM 53.0737 -37.7304 88° East 491 565 38,000  Level FlightAware Transoceanic
12:41AM 53.0787 -37.5031 88° East 491 565 38,000  Level FlightAware Transoceanic
12:42AM 53.0832 -37.2757 88° East 491 565 38,000  Level FlightAware Transoceanic
12:43AM 53.0873 -37.0482 88° East 491 565 38,000  Level FlightAware Transoceanic
12:44AM 53.0910 -36.8208 89° East 491 565 38,000  Level FlightAware Transoceanic
12:45AM 53.0943 -36.5932 89° East 491 565 38,000  Level FlightAware Transoceanic
12:46AM 53.0971 -36.3657 89° East 491 565 38,000  Level FlightAware Transoceanic
12:47AM 53.0995 -36.1381 89° East 491 565 38,000  Level FlightAware Transoceanic
12:48AM 53.1015 -35.9105 89° East 491 565 38,000  Level FlightAware Transoceanic
12:49AM 53.1030 -35.6829 89° East 491 565 38,000  Level FlightAware Transoceanic
12:50AM 53.1041 -35.4553 90° East 491 565 38,000  Level FlightAware Transoceanic
12:51AM 53.1047 -35.2276 90° East 491 565 38,000  Level FlightAware Transoceanic
12:52AM 53.1049 -35.0000 90° East 491 565 38,000  Level FlightAware Transoceanic
12:53AM 53.1047 -34.7724 90° East 491 565 38,000  Level FlightAware Transoceanic
12:54AM 53.1041 -34.5447 90° East 491 565 38,000  Level FlightAware Transoceanic
12:55AM 53.1030 -34.3171 91° East 491 565 38,000  Level FlightAware Transoceanic
12:56AM 53.1015 -34.0895 91° East 491 565 38,000  Level FlightAware Transoceanic
12:57AM 53.0995 -33.8619 91° East 491 565 38,000  Level FlightAware Transoceanic
12:58AM 53.0971 -33.6343 91° East 491 565 38,000  Level FlightAware Transoceanic
12:59AM 53.0943 -33.4068 91° East 491 565 38,000  Level FlightAware Transoceanic
01:00AM 53.0910 -33.1792 91° East 491 565 38,000  Level FlightAware Transoceanic
01:01AM 53.0873 -32.9518 92° East 491 565 38,000  Level FlightAware Transoceanic
01:02AM 53.0832 -32.7243 92° East 491 565 38,000  Level FlightAware Transoceanic
01:03AM 53.0787 -32.4969 92° East 491 565 38,000  Level FlightAware Transoceanic
01:04AM 53.0737 -32.2696 92° East 491 565 38,000  Level FlightAware Transoceanic
01:05AM 53.0683 -32.0423 92° East 491 565 38,000  Level FlightAware Transoceanic
01:06AM 53.0624 -31.8151 93° East 491 565 38,000  Level FlightAware Transoceanic
01:07AM 53.0561 -31.5879 93° East 491 565 38,000  Level FlightAware Transoceanic
01:08AM 53.0494 -31.3609 93° East 491 565 38,000  Level FlightAware Transoceanic
01:09AM 53.0422 -31.1338 93° East 491 565 38,000  Level FlightAware Transoceanic
01:10AM 53.0347 -30.9069 93° East 491 565 38,000  Level FlightAware Transoceanic
01:11AM 53.0266 -30.6800 93° East 491 565 38,000  Level FlightAware Transoceanic
01:12AM 53.0182 -30.4533 94° East 491 565 38,000  Level FlightAware Transoceanic
01:13AM 53.0093 -30.2266 94° East 491 565 38,000  Level FlightAware Transoceanic
01:14AM 53.0009 -30.0215 94° East  Level FlightAware Approximate
01:15AM 52.9922 -29.8165 94° East  Level FlightAware Approximate
01:16AM 53.0061 -29.8380 86° East  Level FlightAware Approximate
01:16AM 53.0000 -30.0000 86° East 503 579 38,000  Level ETMS Enhanced Traffic Management System
01:17AM 53.0134 -29.6328 87° East  Level FlightAware Approximate
01:18AM 53.0204 -29.4275 87° East  Level FlightAware Approximate
01:19AM 53.0270 -29.2222 87° East  Level FlightAware Approximate
01:20AM 53.0333 -29.0168 87° East  Level FlightAware Approximate
01:21AM 53.0392 -28.8114 87° East  Level FlightAware Approximate
01:22AM 53.0635 -28.1426 87° East 503 579 38,000  Level FlightAware Transoceanic
01:23AM 53.0694 -27.9101 88° East 503 579 38,000  Level FlightAware Transoceanic
01:24AM 53.0749 -27.6775 88° East 503 579 38,000  Level FlightAware Transoceanic
01:25AM 53.0799 -27.4449 88° East 503 579 38,000  Level FlightAware Transoceanic
01:26AM 53.0844 -27.2122 88° East 503 579 38,000  Level FlightAware Transoceanic
01:27AM 53.0885 -26.9795 88° East 503 579 38,000  Level FlightAware Transoceanic
01:28AM 53.0922 -26.7467 89° East 503 579 38,000  Level FlightAware Transoceanic
01:29AM 53.0953 -26.5139 89° East 503 579 38,000  Level FlightAware Transoceanic
01:30AM 53.0981 -26.2810 89° East 503 579 38,000  Level FlightAware Transoceanic
01:31AM 53.1003 -26.0481 89° East 503 579 38,000  Level FlightAware Transoceanic
01:32AM 53.1021 -25.8152 89° East 503 579 38,000  Level FlightAware Transoceanic
01:33AM 53.1035 -25.5823 90° East 503 579 38,000  Level FlightAware Transoceanic
01:34AM 53.1044 -25.3494 90° East 503 579 38,000  Level FlightAware Transoceanic
01:35AM 53.1049 -25.1165 90° East 503 579 38,000  Level FlightAware Transoceanic
01:36AM 53.1049 -24.8835 90° East 503 579 38,000  Level FlightAware Transoceanic
01:37AM 53.1044 -24.6506 90° East 503 579 38,000  Level FlightAware Transoceanic
01:38AM 53.1035 -24.4177 90° East 503 579 38,000  Level FlightAware Transoceanic
01:39AM 53.1021 -24.1848 91° East 503 579 38,000  Level FlightAware Transoceanic
01:40AM 53.1003 -23.9519 91° East 503 579 38,000  Level FlightAware Transoceanic
01:41AM 53.0981 -23.7190 91° East 503 579 38,000  Level FlightAware Transoceanic
01:42AM 53.0953 -23.4861 91° East 503 579 38,000  Level FlightAware Transoceanic
01:43AM 53.0922 -23.2533 91° East 503 579 38,000  Level FlightAware Transoceanic
01:44AM 53.0885 -23.0205 92° East 503 579 38,000  Level FlightAware Transoceanic
01:45AM 53.0844 -22.7878 92° East 503 579 38,000  Level FlightAware Transoceanic
01:46AM 53.0799 -22.5551 92° East 503 579 38,000  Level FlightAware Transoceanic
01:47AM 53.0749 -22.3225 92° East 503 579 38,000  Level FlightAware Transoceanic
01:48AM 53.0694 -22.0899 92° East 503 579 38,000  Level FlightAware Transoceanic
01:49AM 53.0635 -21.8574 93° East 503 579 38,000  Level FlightAware Transoceanic
01:50AM 53.0572 -21.6249 93° East 503 579 38,000  Level FlightAware Transoceanic
01:51AM 53.0504 -21.3925 93° East 503 579 38,000  Level FlightAware Transoceanic
01:52AM 53.0431 -21.1602 93° East 503 579 38,000  Level FlightAware Transoceanic
01:53AM 53.0354 -20.9280 93° East 503 579 38,000  Level FlightAware Transoceanic
01:54AM 53.0272 -20.6959 93° East 503 579 38,000  Level FlightAware Transoceanic
01:55AM 53.0186 -20.4638 94° East 503 579 38,000  Level FlightAware Transoceanic
01:56AM 53.0095 -20.2319 94° East 503 579 38,000  Level FlightAware Transoceanic
01:57AM 53.0011 -20.0268 94° East  Level FlightAware Approximate
01:58AM 52.9924 -19.8218 94° East  Level FlightAware Approximate
01:59AM 53.0136 -19.8502 81° East  Level FlightAware Approximate
02:00AM 53.0318 -19.6468 81° East  Level FlightAware Approximate
02:01AM 53.0497 -19.4433 82° East  Level FlightAware Approximate
02:02AM 53.0672 -19.2395 82° East  Level FlightAware Approximate
02:03AM 53.0843 -19.0357 82° East  Level FlightAware Approximate
02:04AM 53.1011 -18.8316 82° East  Level FlightAware Approximate
02:05AM 53.1176 -18.6274 82° East  Level FlightAware Approximate
02:06AM 53.1337 -18.4231 82° East  Level FlightAware Approximate
02:07AM 53.1494 -18.2186 83° East  Level FlightAware Approximate
02:08AM 53.1648 -18.0139 83° East  Level FlightAware Approximate
02:09AM 53.1799 -17.8091 83° East  Level FlightAware Approximate
02:10AM 53.1946 -17.6042 83° East  Level FlightAware Approximate
02:11AM 53.2089 -17.3991 83° East  Level FlightAware Approximate
02:12AM 53.2229 -17.1939 83° East  Level FlightAware Approximate
02:13AM 53.2365 -16.9885 84° East  Level FlightAware Approximate
02:14AM 53.2498 -16.7831 84° East  Level FlightAware Approximate
02:15AM 53.2627 -16.5774 84° East  Level FlightAware Approximate
02:16AM 53.2753 -16.3717 84° East  Level FlightAware Approximate
02:17AM 53.2876 -16.1659 84° East  Level FlightAware Approximate
02:18AM 53.2994 -15.9599 84° East  Level FlightAware Approximate
02:19AM 53.3110 -15.7538 85° East  Level FlightAware Approximate
02:20AM 53.3221 -15.5477 85° East  Level FlightAware Approximate
02:21AM 53.3329 -15.3414 85° East  Level FlightAware Approximate
02:22AM 53.3434 -15.1350 85° East  Level FlightAware Approximate
02:23AM 53.3536 -14.9285 85° East  Level FlightAware Approximate
02:24AM 53.3636 -14.7219 85° East  Level FlightAware Approximate
02:25AM 53.3733 -14.5153 85° East  Level FlightAware Approximate
02:25AM 53.0760 -13.8790 86° East 488 562 38,000  Level FlightAware
02:26AM 53.3826 -14.3086 86° East  Level FlightAware Approximate
02:26AM 53.0890 -13.7290 82° East 487 560 38,000  Level FlightAware
02:27AM 53.1010 -13.5860 82° East 486 559 38,000  Level FlightAware
02:27AM 53.1140 -13.4250 82° East 487 560 38,000  Level FlightAware
02:28AM 53.1290 -13.2480 82° East 486 559 38,000  Level FlightAware
02:29AM 53.1390 -13.1310 82° East 486 559 38,000  Level FlightAware
02:30AM 53.1540 -12.9350 83° East 485 558 38,000  Level FlightAware
02:30AM 53.1650 -12.7960 82° East 484 557 38,000  Level FlightAware
02:31AM 53.1770 -12.6390 83° East 482 555 38,000  Level FlightAware
02:32AM 53.1890 -12.4730 83° East 482 555 38,000  Level FlightAware
02:32AM 53.2000 -12.3350 82° East 482 555 38,000  Level FlightAware
02:33AM 53.2120 -12.1650 83° East 481 554 38,000  Level FlightAware
02:34AM 53.2230 -12.0120 83° East 481 554 38,000  Level FlightAware
02:34AM 53.2340 -11.8460 84° East 482 555 38,000  Level FlightAware
02:35AM 53.2440 -11.6990 83° East 481 554 38,000  Level FlightAware
02:36AM 53.2540 -11.5500 84° East 481 554 38,000  Level FlightAware
02:37AM 53.2640 -11.3860 84° East 482 555 38,000  Level FlightAware
02:37AM 53.2740 -11.2360 84° East 482 555 38,000  Level FlightAware
02:38AM 53.2830 -11.0900 84° East 482 555 38,000  Level FlightAware
02:39AM 53.2930 -10.9240 84° East 481 554 38,000  Level FlightAware
02:39AM 53.3020 -10.7780 84° East 481 554 38,000  Level FlightAware
02:40AM 53.3120 -10.6090 84° East 479 551 38,000  Level FlightAware
02:41AM 53.3200 -10.4630 85° East 480 552 38,000  Level FlightAware
02:41AM 53.3280 -10.3160 85° East 479 551 38,000  Level FlightAware
02:42AM 53.3370 -10.1510 85° East 478 550 38,000  Level FlightAware
02:43AM 53.3450 -9.9980 85° East 477 549 38,000  Level FlightAware
02:43AM 53.3520 -9.8530 85° East 476 548 38,000  Level FlightAware
02:44AM 53.3600 -9.6850 85° East 474 545 38,000  Level FlightAware
02:45AM 53.3680 -9.5240 85° East 472 543 38,000  Level FlightAware
02:46AM 53.3750 -9.3790 85° East 472 543 38,000  Level FlightAware
02:46AM 53.3810 -9.2370 86° East 471 542 38,000  Level FlightAware
02:47AM 53.3880 -9.0890 85° East 470 541 38,000 -1,680 Level FlightAware
02:47AM 53.3806 -8.9789 85° East 450 518 36,500 -2,760 Descending FlightAware UK
02:48AM 53.3837 -8.9145 85° East 450 518 36,500 3,000 Level FlightAware UK
02:48AM 53.3950 -8.9250 85° East 470 541 38,000  Climbing FlightAware
02:48AM 53.3883 -8.8062 85° East 450 518 36,500 -2,520 Descending FlightAware UK
02:48AM 53.3909 -8.7410 86° East 450 518 36,500 4,080 Level FlightAware UK
02:48AM 53.4000 -8.7800 86° East 470 541 38,000  Climbing FlightAware
02:49AM 53.3946 -8.6544 86° East 450 518 36,500 -2,400 Descending FlightAware UK
02:49AM 53.3972 -8.5894 86° East 450 518 36,500 4,500 Level FlightAware UK
02:49AM 53.4060 -8.6380 86° East 470 541 38,000  Climbing FlightAware
02:49AM 53.3997 -8.5244 86° East 452 520 36,500 -2,700 Descending FlightAware UK
02:50AM 53.4022 -8.4593 86° East 454 522 36,500 3,060 Level FlightAware UK
02:50AM 53.4130 -8.4720 86° East 469 540 38,000  Climbing FlightAware
02:50AM 53.4063 -8.3502 86° East 454 522 36,500 -2,460 Descending FlightAware UK
02:50AM 53.4087 -8.2851 86° East 452 520 36,500  Level FlightAware UK
02:51AM 53.4111 -8.2203 86° East 452 520 36,500  Level FlightAware UK
02:51AM 53.4135 -8.1552 86° East 452 520 36,500  Level FlightAware UK
02:51AM 53.4159 -8.0901 86° East 452 520 36,500  Level FlightAware UK
02:52AM 53.4183 -8.0250 87° East 452 520 36,500  Level FlightAware UK
02:52AM 53.4205 -7.9599 87° East 452 520 36,500 2,880 Level FlightAware UK
02:52AM 53.4300 -7.9780 87° East 471 542 38,000  Climbing FlightAware
02:52AM 53.4241 -7.8511 87° East 454 522 36,500 -2,580 Descending FlightAware UK
02:53AM 53.4263 -7.7857 87° East 454 522 36,500 3,180 Level FlightAware UK
02:53AM 53.4360 -7.8090 87° East 471 542 38,000  Climbing FlightAware
02:53AM 53.4299 -7.6768 87° East 452 520 36,500  Descending FlightAware UK
02:54AM 53.4400 -7.6600 87° East 471 542 38,000  Climbing FlightAware
02:54AM 53.4342 -7.5459 87° East 454 522 36,500 -2,700 Descending FlightAware UK
02:54AM 53.4362 -7.4805 87° East 452 520 36,500 3,720 Level FlightAware UK
02:54AM 53.4450 -7.5160 87° East 471 542 38,000  Climbing FlightAware
02:55AM 53.4387 -7.3933 87° East 452 520 36,500 -2,520 Descending FlightAware UK
02:55AM 53.4407 -7.3279 87° East 456 525 36,500 3,300 Level FlightAware UK
02:55AM 53.4490 -7.3510 87° East 472 543 38,000  Climbing FlightAware
02:55AM 53.4432 -7.2405 87° East 460 529 36,500 -2,760 Descending FlightAware UK
02:56AM 53.4451 -7.1742 87° East 458 527 36,500 3,600 Level FlightAware UK
02:56AM 53.4530 -7.2080 87° East 471 542 38,000  Climbing FlightAware
02:56AM 53.4475 -7.0868 87° East 456 525 36,500 -2,580 Descending FlightAware UK
02:56AM 53.4493 -7.0214 87° East 462 532 36,500 3,180 Level FlightAware UK
02:56AM 53.4580 -7.0440 87° East 470 541 38,000  Climbing FlightAware
02:57AM 53.4523 -6.9125 87° East 454 522 36,500  Descending FlightAware UK
02:57AM 53.4610 -6.9020 87° East 469 540 38,000  Climbing FlightAware
02:57AM 53.4554 -6.7822 87° East 458 527 36,500 -2,700 Descending FlightAware UK
02:58AM 53.4570 -6.7171 88° East 456 525 36,500 3,720 Level FlightAware UK
02:58AM 53.4650 -6.7540 88° East 468 539 38,000  Climbing FlightAware
02:58AM 53.4591 -6.6304 88° East 456 525 36,500 -2,520 Descending FlightAware UK
02:58AM 53.4606 -6.5655 88° East 456 525 36,500 3,300 Level FlightAware UK
02:58AM 53.4680 -6.5890 88° East 468 539 38,000  Climbing FlightAware
02:59AM 53.4625 -6.4789 88° East 456 525 36,500 -3,120 Descending FlightAware UK
02:59AM 53.4641 -6.4140 88° East 458 527 36,300 3,360 Descending FlightAware UK
02:59AM 53.4710 -6.4450 88° East 467 537 37,900 -1,260 Climbing FlightAware
02:59AM 53.4659 -6.3275 88° East 468 539 35,800 -4,800 Descending FlightAware UK
03:00AM 53.4671 -6.2628 88° East 470 541 35,100 1,020 Descending FlightAware UK
03:00AM 53.4750 -6.2750 88° East 462 532 36,300 -2,640 Climbing FlightAware
03:00AM 53.4691 -6.1555 88° East 456 525 33,800 -2,700 Descending FlightAware UK
03:01AM 53.4770 -6.1330 88° East 466 536 34,500 -3,000 Climbing FlightAware
03:01AM 53.4716 -6.0259 88° East 460 529 32,000 -6,000 Descending FlightAware UK
03:01AM 53.4730 -5.9609 88° East 460 529 31,100 960 Descending FlightAware UK
03:01AM 53.4800 -5.9860 88° East 472 543 32,400 -3,300 Climbing FlightAware
03:02AM 53.4743 -5.8725 88° East 462 532 29,800 -6,000 Descending FlightAware UK
03:02AM 53.4755 -5.8063 88° East 466 536 28,800 840 Descending FlightAware UK
03:02AM 53.4830 -5.8310 88° East 476 548 30,200 -2,520 Climbing FlightAware
03:02AM 53.4770 -5.7181 88° East 458 527 27,800 -5,460 Descending FlightAware UK
03:03AM 53.4780 -5.6527 88° East 454 522 27,200 1,680 Descending FlightAware UK
03:03AM 53.4850 -5.6790 88° East 465 535 28,500 -2,520 Climbing FlightAware
03:03AM 53.4794 -5.5666 88° East 452 520 26,200 -4,980 Descending FlightAware UK
03:03AM 53.4804 -5.5034 88° East 448 516 25,600 1,920 Descending FlightAware UK
03:03AM 53.4870 -5.5150 88° East 452 520 27,100 -420 Climbing FlightAware
03:04AM 53.4820 -5.3988 88° East 442 509 25,400 -180 Descending FlightAware UK
03:04AM 53.4920 -5.3780 88° East 455 524 27,000 120 Climbing FlightAware
03:04AM 53.4917 -5.2730 88° East 446 513 25,500 -2,700 Descending FlightAware UK
03:05AM 53.4974 -5.2098 81° East 446 513 25,500 3,720 Level FlightAware UK
03:05AM 53.5050 -5.2340 81° East 458 527 27,000  Climbing FlightAware
03:05AM 53.5052 -5.1256 81° East 446 513 25,500 -2,520 Descending FlightAware UK
03:05AM 53.5110 -5.0623 81° East 448 516 25,500 3,300 Level FlightAware UK
03:05AM 53.5190 -5.0850 81° East 461 531 27,000  Climbing FlightAware
03:06AM 53.5187 -4.9776 81° East 448 516 25,500 -2,760 Descending FlightAware UK
03:06AM 53.5244 -4.9137 81° East 448 516 25,500 3,600 Level FlightAware UK
03:06AM 53.5320 -4.9400 81° East 463 533 27,000 -540 Climbing FlightAware
03:06AM 53.5322 -4.8276 81° East 442 509 25,300 -3,300 Descending FlightAware UK
03:07AM 53.5378 -4.7643 82° East 436 502 25,100 2,520 Descending FlightAware UK
03:07AM 53.5460 -4.7780 82° East 448 516 26,500 -840 Climbing FlightAware
03:07AM 53.5469 -4.6623 82° East 426 490 24,700 -1,500 Descending FlightAware UK
03:08AM 53.5580 -4.6400 82° East 447 514 25,500 -1,860 Climbing FlightAware
03:08AM 53.5527 -4.5390 82° East 422 486 23,600 -4,440 Descending FlightAware UK
03:08AM 53.5523 -4.4786 91° East 416 479 23,000 1,980 Descending FlightAware UK
03:08AM 53.5590 -4.5070 91° East 428 493 24,400 -1,260 Climbing FlightAware
03:09AM 53.5513 -4.3994 91° East 410 472 22,500 -3,360 Descending FlightAware UK
03:09AM 53.5506 -4.3403 91° East 406 467 22,400 3,060 Descending FlightAware UK
03:09AM 53.5570 -4.3620 91° East 415 478 23,900 -1,260 Climbing FlightAware
03:09AM 53.5503 -4.2640 91° East 392 451 21,900 -3,900 Descending FlightAware UK
03:10AM 53.5501 -4.2072 90° East 384 442 21,700 2,880 Descending FlightAware UK
03:10AM 53.5570 -4.2370 90° East 394 453 23,100 -2,520 Climbing FlightAware
03:10AM 53.5501 -4.1341 90° East 382 440 20,700 -6,000 Descending FlightAware UK
03:10AM 53.5500 -4.0775 90° East 388 447 19,500 780 Descending FlightAware UK
03:10AM 53.5570 -4.1120 90° East 410 472 21,000 -2,100 Climbing FlightAware
03:11AM 53.5499 -4.0018 90° East 390 449 18,700 -4,740 Descending FlightAware UK
03:11AM 53.5498 -3.9449 90° East 392 451 18,100 1,560 Descending FlightAware UK
03:11AM 53.5570 -3.9690 90° East 404 465 19,400 -2,160 Climbing FlightAware
03:11AM 53.5501 -3.8690 90° East 386 444 17,200 -4,980 Descending FlightAware UK
03:12AM 53.5504 -3.8130 89° East 386 444 16,500 1,800 Descending FlightAware UK
03:12AM 53.5570 -3.8420 89° East 398 458 17,900 -2,280 Climbing FlightAware
03:12AM 53.5508 -3.7388 89° East 382 440 15,600 -2,400 Descending FlightAware UK
03:12AM 53.5580 -3.7160 89° East 401 461 16,100 -2,520 Climbing FlightAware
03:13AM 53.5514 -3.5897 89° East 378 435 13,600 -2,100 Descending FlightAware UK
03:13AM 53.5580 -3.5860 89° East 392 451 14,700 -2,040 Climbing FlightAware
03:14AM 53.5511 -3.4631 89° East 366 421 12,200 -1,920 Descending FlightAware UK
03:14AM 53.5590 -3.4850 89° East 379 436 13,600 -2,220 Climbing FlightAware
03:14AM 53.5519 -3.3756 89° East 362 417 11,100 -4,560 Descending FlightAware UK
03:15AM 53.5520 -3.2877 90° East 352 405 9,900  Descending FlightAware UK
03:15AM 53.5590 -3.2930 90° East 370 426 11,100 -1,380 Climbing FlightAware
03:15AM 53.5497 -3.1844 90° East 332 382 9,100 -4,140 Descending FlightAware UK
03:15AM 53.5486 -3.1353 92° East 330 380 8,500 3,000 Descending FlightAware UK
03:15AM 53.5560 -3.1800 92° East 354 407 10,100 4,920 Climbing FlightAware
03:16AM 53.5560 -3.1420 90° East 342 394 9,900 -4,440 Descending FlightAware
03:16AM 53.5464 -3.0403 90° East 312 359 7,600 -2,640 Descending FlightAware UK
03:16AM 53.5540 -3.0740 90° East 346 398 8,800 -3,300 Climbing FlightAware
03:16AM 53.5447 -2.9742 90° East 332 382 6,300 -2,640 Descending FlightAware UK
03:17AM 53.5520 -2.9920 90° East 358 412 7,500 1,980 Climbing FlightAware
03:17AM 53.5510 -2.9580 93° East 358 412 7,200 -4,440 Descending FlightAware
03:17AM 53.5418 -2.8570 93° East 322 371 5,300 -1,200 Descending FlightAware UK
03:17AM 53.5500 -2.8820 93° East 345 397 6,700 -1,620 Climbing FlightAware
03:18AM 53.5398 -2.7769 93° East 316 364 4,500 -1,440 Descending FlightAware UK
03:18AM 53.5480 -2.8020 93° East 336 387 6,000  Climbing FlightAware
03:18AM 53.5362 -2.6984 93° East 316 364 4,500  Descending FlightAware UK
03:18AM 53.5460 -2.7250 93° East 341 392 6,000  Climbing FlightAware
03:19AM 53.5388 -2.6186 93° East 314 361 4,500  Descending FlightAware UK
03:19AM 53.5480 -2.6600 93° East 339 390 6,000  Climbing FlightAware
03:19AM 53.5409 -2.5561 93° East 312 359 4,500  Descending FlightAware UK
03:19AM 53.5510 -2.5790 93° East 341 392 6,000 -1,200 Climbing FlightAware
03:20AM 53.5433 -2.4765 93° East 310 357 3,900 -1,680 Descending FlightAware UK
03:20AM 53.5530 -2.5140 93° East 333 383 5,300 -1,500 Climbing FlightAware
03:20AM 53.5451 -2.4143 93° East 308 354 3,300 -1,440 Descending FlightAware UK
03:20AM 53.5510 -2.4340 93° East 320 368 4,600 -1,200 Climbing FlightAware
03:21AM 53.5314 -2.3290 93° East 290 334 2,600 -1,020 Descending FlightAware UK
03:21AM 53.5400 -2.3640 93° East 304 350 4,100 -780 Climbing FlightAware
03:21AM 53.5225 -2.2749 93° East 276 318 2,300 -960 Descending FlightAware UK
03:21AM 53.5320 -2.3110 93° East 287 330 3,700 -1,200 Climbing FlightAware
03:21AM 53.5123 -2.2121 93° East 254 292 1,700 -1,020 Descending FlightAware UK
03:22AM 53.5220 -2.2480 93° East 263 303 3,200 -780 Climbing FlightAware
03:22AM 53.5050 -2.1662 93° East 236 272 1,400 -480 Descending FlightAware UK
03:22AM 53.5140 -2.2000 93° East 240 276 3,000 -300 Climbing FlightAware
03:22AM 53.4983 -2.1233 93° East 222 255 1,300 -420 Descending FlightAware UK
03:22AM 53.5050 -2.1480 93° East 218 251 2,800 3,300 Climbing FlightAware
03:23AM 53.4960 -2.1320 133° Southeast 196 226 2,900 180 Climbing FlightAware
03:23AM 53.4850 -2.1200 147° Southeast 184 212 2,900 -240 Level FlightAware
03:23AM 53.4780 -2.1180 170° South 177 204 2,800 -3,360 Descending FlightAware
03:23AM 53.4502 -2.0819 170° South 170 196 1,300  Descending FlightAware UK
03:24AM 53.4570 -2.1320 170° South 153 176 2,800 3,000 Climbing FlightAware
03:24AM 53.4490 -2.1440 222° Southwest 154 177 2,600 -4,020 Descending FlightAware
03:24AM 53.4297 -2.1161 222° Southwest 168 193 800 -960 Descending FlightAware UK
03:24AM 53.4390 -2.1680 222° Southwest 143 165 2,200 -960 Climbing FlightAware
03:25AM 53.4206 -2.1382 222° Southwest 154 177 400 -600 Descending FlightAware UK
03:25AM 53.4280 -2.1930 222° Southwest 136 157 1,900 -600 Climbing FlightAware
03:25AM 53.4086 -2.1622 222° Southwest 162 186 100 -840 Descending FlightAware UK
03:25AM 53.4160 -2.2180 222° Southwest 136 157 1,500 1,860 Climbing FlightAware
03:26AM 53.4090 -2.2340 234° Southwest 127 146 1,200 -660 Descending FlightAware
03:26AM 53.3970 -2.2600 232° Southwest 119 137 900 -600 Descending FlightAware
03:26AM 53.3920 -2.2710 233° Southwest 119 137 700 -720 Descending FlightAware
03:27AM 53.3820 -2.2930 233° Southwest 124 143 400 -780 Descending FlightAware
03:27AM 53.3780 -2.3000 226° Southwest 126 145 200 -1,200 Descending FlightAware